Athol, MA (01331)

2:51 PM EDT on August 31, 2015 (GMT -0400)
Sentinel Elm Farm | | Change Station
CLOSE
Current Station
Personal Weather Station
Location: Athol, MA
Elevation: 883 ft
Nearby Weather Stations

Elev 883 ft 42.61 °N, 72.26 °W | Updated 27 seconds ago

Partly Cloudy
Partly Cloudy
82.0 °F
Feels Like 84 °F
N
6.5
Wind Variable Wind from SW
Gusts 9.8 mph

Today
High -- | Low -- °F
--% Chance of Precip.
Yesterday
High -- | Low -- °F
Precip. -- in
6:12 AM 7:25 PM
Waning Gibbous, 94% visible
Pressure 29.95 in
Visibility 10.0 miles
Clouds Scattered Clouds 5000 ft
Scattered Clouds 6000 ft
Heat Index 84 °F
Dew Point 66 °F
Humidity 59%
Rainfall 0.00 in
Snow Depth Not available.
UV 4.0 out of 12
Pollen 10.60 out of 12
Air Quality Not available.
Flu Activity Not available.
METAR KORE 311752Z AUTO 26011KT 10SM SCT050 SCT060 28/17 A2995 RMK AO2 SLP140 T02830172 10294 20172 56016
Pressure 29.95 in
Visibility 10.0 miles
Clouds Scattered Clouds 5000 ft
Scattered Clouds 6000 ft
Heat Index 84 °F
Dew Point 66 °F
Humidity 59%
Rainfall 0.00 in
Snow Depth Not available.
UV 4.0 out of 12
Pollen 10.60 out of 12
Air Quality Not available.
Flu Activity Not available.
METAR KORE 311752Z AUTO 26011KT 10SM SCT050 SCT060 28/17 A2995 RMK AO2 SLP140 T02830172 10294 20172 56016

10-Day Weather Forecast

×

Almanac

Astronomy

Aug. 31, 2015 Rise Set
Actual Time
Civil Twilight
Nautical Twilight
Astronomical Twilight
Moon
Length of Visible Light
Length of Day
Tomorrow will be .
, % of the Moon is Illuminated

Today's Extremes

State Highs State Lows

Community

WunderPhotos

Upload Photos

1,851,334 photos uploaded!

WunderBlogs® & News

Nearby

Air Quality

  Air Quality AQ Index Pollutant
Not available.

Snow Depth

Station Depth Elevation

Earthquake Activity

City Distance Mag. Time & Date
Minimum magnitude displayed is 2.5.

Coastal Water Temperatures

Place Temperature

Stations

Nearby Weather Stations

Station Location Temp. Windchill Dew Point Humidity Wind Precip. Elev Updated Type